Time;durP1;ratioP1;P1;durP2;ratioP2;P2;SDS_P1;SDS_P2;PMS_P1;PMS_P2;Temp;Humidity;BMP_temperature;BMP_pressure;BME280_temperature;BME280_humidity;BME280_pressure;Samples;Min_cycle;Max_cycle;Signal;HPM_P1;HPM_P2
2022/12/16 00:02:03;;;;;;;69.63;29.58;;;;;;;-3.78;64.16;99198.06;10377003;28;20463;-84
2022/12/16 00:07:05;;;;;;;60.58;28.05;;;;;;;-4.02;64.75;99196.72;10359284;28;20466;-84
2022/12/16 00:12:07;;;;;;;63.85;29.38;;;;;;;-3.86;64.57;99200.75;10374320;28;20073;-83
2022/12/16 00:17:08;;;;;;;65.75;28.08;;;;;;;-3.93;64.54;99195.72;10375215;28;20617;-84
2022/12/16 00:22:10;;;;;;;59.55;27.38;;;;;;;-3.93;64.64;99190.59;10378859;28;20495;-83
2022/12/16 00:27:12;;;;;;;68.65;28.42;;;;;;;-3.93;64.50;99186.34;10351774;28;20053;-83
2022/12/16 00:32:14;;;;;;;65.22;28.77;;;;;;;-3.87;64.10;99188.81;10355075;28;20438;-83
2022/12/16 00:37:15;;;;;;;66.72;27.92;;;;;;;-3.85;64.32;99184.53;10373779;28;20084;-83
2022/12/16 00:42:17;;;;;;;56.90;26.83;;;;;;;-3.91;64.15;99189.72;10355456;28;20060;-83
2022/12/16 00:47:19;;;;;;;56.55;25.98;;;;;;;-3.92;64.30;99184.66;10376784;28;20402;-83
2022/12/16 00:52:20;;;;;;;58.85;26.70;;;;;;;-4.10;64.45;99190.00;10376561;28;20057;-81
2022/12/16 00:57:22;;;;;;;64.32;27.30;;;;;;;-4.19;64.30;99188.41;10368193;28;20053;-83
2022/12/16 01:02:24;;;;;;;61.22;27.35;;;;;;;-4.09;64.36;99184.88;10356950;28;20068;-83
2022/12/16 01:07:26;;;;;;;55.08;26.73;;;;;;;-4.18;64.17;99195.19;10357835;28;20144;-83
2022/12/16 01:12:27;;;;;;;51.33;25.60;;;;;;;-4.09;64.46;99200.19;10375948;28;20058;-84
2022/12/16 01:17:29;;;;;;;58.50;26.92;;;;;;;-4.07;63.96;99206.13;10356544;28;20399;-83
2022/12/16 01:22:32;;;;;;;56.03;25.77;;;;;;;-4.23;64.06;99202.06;10373616;28;20057;-83
2022/12/16 01:27:33;;;;;;;55.50;26.30;;;;;;;-4.38;64.27;99222.66;10357729;28;21021;-83
2022/12/16 01:32:36;;;;;;;50.85;24.70;;;;;;;-4.35;64.35;99226.88;10375205;28;20495;-83
2022/12/16 01:37:38;;;;;;;54.22;26.50;;;;;;;-4.54;64.24;99228.78;10353354;28;20059;-83
2022/12/16 01:42:39;;;;;;;53.95;25.83;;;;;;;-4.56;64.47;99243.28;10368612;28;20148;-84
2022/12/16 01:47:41;;;;;;;53.42;24.98;;;;;;;-4.63;64.27;99241.66;10377584;28;20080;-83
2022/12/16 01:52:48;;;;;;;51.95;25.35;;;;;;;-4.68;64.39;99249.34;10380568;28;20715;-83
2022/12/16 01:58:01;;;;;;;49.55;25.08;;;;;;;-4.69;64.15;99246.81;10379284;28;20049;-83
2022/12/16 02:03:04;;;;;;;52.33;24.27;;;;;;;-4.75;64.31;99252.81;10370466;28;20068;-83
2022/12/16 02:08:10;;;;;;;46.63;23.63;;;;;;;-4.85;64.29;99256.31;10382566;28;20061;-83
2022/12/16 02:13:12;;;;;;;56.17;25.65;;;;;;;-4.73;64.13;99257.91;10381720;28;20057;-83
2022/12/16 02:18:38;;;;;;;48.13;24.00;;;;;;;-4.99;64.49;99257.31;10379765;28;20064;-83
2022/12/16 02:24:07;;;;;;;58.10;24.58;;;;;;;-5.17;64.40;99254.88;10379773;28;20152;-83
2022/12/16 02:29:12;;;;;;;49.28;24.23;;;;;;;-5.15;64.73;99241.25;10378599;28;20068;-83
2022/12/16 02:34:22;;;;;;;47.65;21.70;;;;;;;-5.02;64.71;99252.22;10377267;28;20054;-84
2022/12/16 02:39:36;;;;;;;50.60;23.65;;;;;;;-4.99;64.51;99247.09;10368227;28;20487;-84
2022/12/16 02:45:04;;;;;;;50.55;22.35;;;;;;;-5.10;63.84;99249.75;10377221;28;20064;-83
2022/12/16 02:50:26;;;;;;;42.80;21.85;;;;;;;-5.15;64.23;99264.22;10348203;28;20143;-83
2022/12/16 02:56:03;;;;;;;43.97;22.27;;;;;;;-5.36;64.41;99261.84;10361274;28;20057;-83
2022/12/16 03:01:23;;;;;;;42.17;20.55;;;;;;;-5.47;64.36;99258.50;10377622;28;20068;-84
2022/12/16 03:06:27;;;;;;;42.35;20.65;;;;;;;-5.50;64.78;99261.91;10372608;28;20057;-83
2022/12/16 03:11:30;;;;;;;40.20;19.95;;;;;;;-5.41;64.46;99264.41;10382775;28;20068;-81
2022/12/16 03:16:33;;;;;;;42.10;20.50;;;;;;;-5.49;64.49;99260.22;10385701;28;20077;-83
2022/12/16 03:21:42;;;;;;;46.95;22.65;;;;;;;-5.47;64.40;99251.72;10366088;28;20541;-83
2022/12/16 03:26:58;;;;;;;44.75;22.27;;;;;;;-5.52;64.50;99262.75;10373358;28;20064;-82
2022/12/16 03:32:08;;;;;;;49.85;23.30;;;;;;;-5.57;64.34;99256.88;10382003;28;20060;-84
2022/12/16 03:37:12;;;;;;;56.97;26.13;;;;;;;-5.60;64.13;99257.72;10362298;28;20144;-83
2022/12/16 03:42:14;;;;;;;48.13;22.92;;;;;;;-5.69;64.45;99260.34;10364778;28;20054;-83
2022/12/16 03:47:16;;;;;;;49.28;24.40;;;;;;;-5.72;64.32;99267.97;10364452;28;20057;-83
2022/12/16 03:52:24;;;;;;;46.72;22.55;;;;;;;-5.66;64.27;99257.75;10381930;28;20057;-83
2022/12/16 03:57:26;;;;;;;45.33;23.15;;;;;;;-5.75;64.22;99268.00;10365415;28;20065;-83
2022/12/16 04:02:27;;;;;;;45.15;21.90;;;;;;;-5.74;64.19;99259.50;10360084;28;20060;-83
2022/12/16 04:07:31;;;;;;;46.28;23.48;;;;;;;-5.77;64.05;99269.72;10358389;28;20560;-83
2022/12/16 04:28:34;;;;;;;44.40;20.95;;;;;;;-5.82;63.82;99291.81;10376863;28;20073;-82
